Time;durP1;ratioP1;P1;durP2;ratioP2;P2;SDS_P1;SDS_P2;PMS_P1;PMS_P2;Temp;Humidity;BMP_temperature;BMP_pressure;BME280_temperature;BME280_humidity;BME280_pressure;Samples;Min_cycle;Max_cycle;Signal;HPM_P1;HPM_P2
2023/03/28 00:00:13;;;;;;;0.20;0.20;;;;;;;4.28;62.78;102789.53;5069014;28;20024;-80
2023/03/28 00:02:39;;;;;;;0.20;0.20;;;;;;;4.25;62.84;102782.44;5066835;28;20024;-80
2023/03/28 00:05:06;;;;;;;0.10;0.10;;;;;;;4.23;63.19;102783.22;5067732;28;20503;-81
2023/03/28 00:07:32;;;;;;;0.10;0.10;;;;;;;4.21;62.44;102789.28;5068613;28;20032;-80
2023/03/28 00:09:58;;;;;;;0.10;0.10;;;;;;;4.17;63.35;102784.75;5068266;28;20117;-81
2023/03/28 00:12:24;;;;;;;0.20;0.20;;;;;;;4.14;63.08;102787.28;5067423;28;20029;-79
2023/03/28 00:14:50;;;;;;;0.10;0.10;;;;;;;4.11;63.46;102783.63;5063809;28;20174;-81
2023/03/28 00:17:16;;;;;;;0.10;0.10;;;;;;;4.09;63.48;102795.78;5064083;28;20623;-80
2023/03/28 00:19:45;;;;;;;0.10;0.10;;;;;;;4.07;63.53;102789.59;5067869;28;20025;-80
2023/03/28 00:22:12;;;;;;;0.10;0.10;;;;;;;4.04;63.94;102790.38;5070879;28;20501;-80
2023/03/28 00:24:38;;;;;;;0.20;0.20;;;;;;;4.03;63.63;102799.09;5071654;28;20033;-80
2023/03/28 00:27:06;;;;;;;0.10;0.10;;;;;;;4.03;63.57;102796.47;5070950;28;20118;-80
2023/03/28 00:29:32;;;;;;;0.20;0.20;;;;;;;3.99;64.48;102799.81;5071672;28;20489;-80
2023/03/28 00:31:59;;;;;;;0.10;0.10;;;;;;;4.02;63.16;102799.91;5066479;28;20037;-80
2023/03/28 00:34:26;;;;;;;0.20;0.20;;;;;;;4.01;63.63;102800.75;5071069;28;20509;-81
2023/03/28 00:36:53;;;;;;;0.10;0.10;;;;;;;4.00;63.79;102804.19;5068833;28;20036;-82
2023/03/28 00:39:20;;;;;;;0.10;0.10;;;;;;;3.99;63.67;102794.56;5069896;28;20025;-81
2023/03/28 00:41:46;;;;;;;0.20;0.20;;;;;;;3.98;63.79;102798.91;5071754;28;20020;-81
2023/03/28 00:44:40;;;;;;;0.10;0.10;;;;;;;4.03;63.24;102793.84;5071718;28;20086;-81
2023/03/28 00:49:56;;;;;;;0.77;0.77;;;;;;;3.92;64.06;102797.78;5055761;28;20404;-80
2023/03/28 00:52:28;;;;;;;0.20;0.20;;;;;;;3.91;64.45;102799.50;5048782;28;20030;-80
2023/03/28 00:54:56;;;;;;;0.10;0.10;;;;;;;3.90;64.51;102792.47;5059543;28;20049;-81
2023/03/28 00:57:24;;;;;;;0.10;0.10;;;;;;;3.88;64.39;102792.41;5051905;28;20032;-82
2023/03/28 00:59:51;;;;;;;0.20;0.20;;;;;;;3.89;64.19;102790.69;5059838;28;20032;-82
2023/03/28 01:02:19;;;;;;;0.20;0.20;;;;;;;3.91;64.12;102790.75;5048696;28;20033;-81
2023/03/28 01:04:56;;;;;;;0.10;0.10;;;;;;;3.93;64.04;102781.22;5054620;28;20054;-80
2023/03/28 01:07:24;;;;;;;0.10;0.10;;;;;;;3.90;64.62;102779.38;5047016;28;20044;-80
2023/03/28 01:09:50;;;;;;;0.20;0.20;;;;;;;3.90;64.38;102771.50;5050716;28;20040;-80
2023/03/28 01:12:18;;;;;;;0.10;0.10;;;;;;;3.88;63.48;102770.53;5055428;28;20028;-80
2023/03/28 01:14:45;;;;;;;0.30;0.30;;;;;;;3.85;64.00;102770.41;5054426;28;20033;-80
2023/03/28 01:17:11;;;;;;;0.10;0.10;;;;;;;3.81;64.36;102774.63;5056206;28;20036;-80
2023/03/28 01:22:41;;;;;;;0.10;0.10;;;;;;;3.83;64.22;102762.47;5125137;27;20404;-81
2023/03/28 01:25:47;;;;;;;0.20;0.20;;;;;;;3.81;64.71;102758.00;5121891;27;20098;-80
2023/03/28 01:28:44;;;;;;;0.20;0.20;;;;;;;3.75;64.59;102757.78;5115763;28;20059;-79
2023/03/28 01:34:44;;;;;;;0.10;0.10;;;;;;;3.66;65.13;102750.44;5115071;27;20392;-80
2023/03/28 01:37:37;;;;;;;0.10;0.10;;;;;;;3.62;64.76;102754.66;5113540;28;20096;-79
2023/03/28 01:40:30;;;;;;;0.70;0.70;;;;;;;3.61;64.58;102750.25;5095123;28;20059;-80
2023/03/28 01:46:10;;;;;;;0.10;0.10;;;;;;;3.59;64.30;102761.50;5102691;27;1215108;-80
2023/03/28 01:51:55;;;;;;;0.20;0.20;;;;;;;3.58;65.14;102760.63;5068818;28;20417;-80
2023/03/28 02:05:46;;;;;;;0.10;0.10;;;;;;;3.50;65.41;102759.41;5119834;27;20863;-80
2023/03/28 02:08:15;;;;;;;0.10;0.10;;;;;;;3.52;65.11;102760.38;5107167;28;20077;-80
2023/03/28 02:10:43;;;;;;;0.30;0.30;;;;;;;3.50;65.67;102765.56;5106300;28;20115;-80
2023/03/28 02:13:16;;;;;;;0.10;0.10;;;;;;;3.55;65.63;102765.75;5107440;28;20023;-80
2023/03/28 02:15:47;;;;;;;0.22;0.22;;;;;;;3.56;65.68;102768.44;5104935;28;20114;-80
2023/03/28 02:18:19;;;;;;;0.10;0.10;;;;;;;3.59;65.79;102765.06;5100897;28;20042;-79
2023/03/28 02:20:54;;;;;;;0.20;0.20;;;;;;;3.65;64.83;102767.00;5103276;28;20058;-80
2023/03/28 02:23:24;;;;;;;0.17;0.17;;;;;;;3.65;65.59;102760.06;5108422;28;20050;-79
2023/03/28 02:25:51;;;;;;;0.10;0.10;;;;;;;3.69;64.85;102763.69;5108710;28;20032;-80
2023/03/28 02:28:18;;;;;;;0.10;0.10;;;;;;;3.70;64.96;102758.50;5107548;28;20032;-81
2023/03/28 02:30:45;;;;;;;0.20;0.20;;;;;;;3.70;65.01;102755.88;5107546;28;20072;-81
2023/03/28 02:33:33;;;;;;;0.20;0.20;;;;;;;3.77;65.06;102754.38;5109187;28;20069;-81
2023/03/28 02:41:50;;;;;;;0.10;0.10;;;;;;;3.70;65.12;102750.63;5061003;28;20615;-80
2023/03/28 02:49:49;;;;;;;0.20;0.20;;;;;;;3.65;65.65;102746.94;5109766;27;1193195;-80
2023/03/28 02:52:39;;;;;;;0.17;0.17;;;;;;;3.68;64.91;102743.53;5132173;28;20148;-79
2023/03/28 02:58:01;;;;;;;0.10;0.10;;;;;;;3.62;65.34;102740.69;5105737;27;20409;-80
2023/03/28 03:00:27;;;;;;;0.10;0.10;;;;;;;3.58;65.00;102742.28;5097501;28;20024;-81
2023/03/28 03:02:53;;;;;;;0.10;0.10;;;;;;;3.58;64.62;102739.66;5090206;28;20040;-80
2023/03/28 03:05:20;;;;;;;0.10;0.10;;;;;;;3.57;65.09;102740.50;5094964;28;20031;-80
2023/03/28 03:07:48;;;;;;;0.20;0.20;;;;;;;3.55;65.04;102744.78;5089212;28;20505;-80
2023/03/28 03:10:15;;;;;;;0.10;0.10;;;;;;;3.52;64.96;102737.69;5084802;28;20051;-81
2023/03/28 03:12:42;;;;;;;0.20;0.20;;;;;;;3.51;64.83;102741.13;5089600;28;20043;-80
2023/03/28 03:15:10;;;;;;;0.20;0.20;;;;;;;3.46;64.95;102742.69;5093602;28;20032;-80
2023/03/28 03:17:37;;;;;;;0.13;0.13;;;;;;;3.42;65.57;102740.78;5078614;28;20028;-80
2023/03/28 03:20:05;;;;;;;0.20;0.20;;;;;;;3.38;64.95;102739.75;5095482;28;20092;-80
2023/03/28 03:22:33;;;;;;;0.10;0.10;;;;;;;3.35;65.51;102741.34;5081993;28;20382;-80
2023/03/28 03:25:05;;;;;;;0.40;0.40;;;;;;;3.32;65.19;102743.88;5094979;28;20050;-80
2023/03/28 03:27:32;;;;;;;0.20;0.20;;;;;;;3.28;65.37;102744.56;5092994;28;20012;-81
2023/03/28 03:29:58;;;;;;;0.10;0.10;;;;;;;3.27;65.31;102748.03;5092083;28;20048;-81
2023/03/28 03:32:25;;;;;;;0.10;0.10;;;;;;;3.24;65.24;102744.44;5084624;28;20078;-81
2023/03/28 03:34:51;;;;;;;0.10;0.10;;;;;;;3.21;65.21;102731.19;5085574;28;20094;-81
2023/03/28 03:37:18;;;;;;;0.20;0.20;;;;;;;3.19;65.65;102738.13;5088188;28;20048;-81
2023/03/28 03:39:45;;;;;;;0.10;0.10;;;;;;;3.19;65.39;102739.84;5089666;28;20041;-81
2023/03/28 03:42:11;;;;;;;0.20;0.20;;;;;;;3.16;65.95;102743.22;5085612;28;20028;-81
2023/03/28 03:44:37;;;;;;;0.10;0.10;;;;;;;3.14;65.75;102742.28;5079394;28;20040;-81
2023/03/28 03:47:04;;;;;;;0.20;0.20;;;;;;;3.14;66.09;102736.13;5082164;28;20028;-80
2023/03/28 03:49:30;;;;;;;0.20;0.20;;;;;;;3.10;66.37;102727.25;5087692;28;20438;-80
2023/03/28 03:51:56;;;;;;;0.10;0.10;;;;;;;3.08;66.72;102729.81;5084024;28;20524;-80
2023/03/28 03:54:23;;;;;;;0.20;0.20;;;;;;;3.08;66.20;102728.94;5091965;28;20043;-80
2023/03/28 03:56:49;;;;;;;0.20;0.20;;;;;;;3.08;66.13;102721.97;5085113;28;20474;-81
2023/03/28 03:59:16;;;;;;;0.10;0.10;;;;;;;3.07;66.68;102729.75;5085557;28;20112;-81
2023/03/28 04:01:42;;;;;;;0.10;0.10;;;;;;;3.07;66.10;102725.41;5090892;28;20544;-81
2023/03/28 04:04:10;;;;;;;0.10;0.10;;;;;;;3.07;66.60;102725.41;5091752;28;20095;-80
2023/03/28 04:06:37;;;;;;;0.10;0.10;;;;;;;3.07;66.38;102729.75;5088025;28;20119;-80
2023/03/28 04:09:06;;;;;;;0.10;0.10;;;;;;;3.06;66.49;102735.81;5071583;28;20039;-81
2023/03/28 04:11:33;;;;;;;0.17;0.17;;;;;;;3.06;66.63;102727.97;5082020;28;20035;-80
2023/03/28 04:13:59;;;;;;;0.20;0.20;;;;;;;3.05;66.25;102736.66;5068800;28;20033;-80
2023/03/28 04:16:25;;;;;;;0.17;0.17;;;;;;;3.05;66.40;102732.31;5071474;28;20032;-80
2023/03/28 04:18:51;;;;;;;0.17;0.17;;;;;;;3.05;66.58;102729.72;5076384;28;20105;-81
2023/03/28 04:21:24;;;;;;;0.10;0.10;;;;;;;3.07;66.71;102732.38;5077231;28;20082;-81
2023/03/28 04:23:50;;;;;;;0.17;0.17;;;;;;;3.06;66.32;102728.84;5064122;28;20037;-81
2023/03/28 04:26:24;;;;;;;0.10;0.10;;;;;;;3.06;66.59;102728.84;5073312;28;20024;-81
2023/03/28 04:28:52;;;;;;;0.63;0.63;;;;;;;3.07;65.99;102719.28;5076045;28;20474;-80
2023/03/28 04:31:20;;;;;;;0.10;0.10;;;;;;;3.07;66.76;102724.53;5064556;28;20117;-80
2023/03/28 04:33:47;;;;;;;0.10;0.10;;;;;;;3.06;66.57;102723.59;5068660;28;20034;-80
2023/03/28 04:36:15;;;;;;;0.13;0.13;;;;;;;3.07;66.70;102735.00;5075243;28;20032;-79
2023/03/28 04:38:44;;;;;;;0.10;0.10;;;;;;;3.06;66.79;102726.22;5072300;28;20063;-80
2023/03/28 04:41:12;;;;;;;0.10;0.10;;;;;;;3.07;66.55;102724.53;5073982;28;20028;-80
2023/03/28 04:43:38;;;;;;;0.10;0.10;;;;;;;3.08;66.78;102731.56;5073158;28;20051;-80
2023/03/28 04:46:04;;;;;;;0.10;0.10;;;;;;;3.07;66.58;102729.75;5067900;28;20025;-80
2023/03/28 04:48:31;;;;;;;0.10;0.10;;;;;;;3.08;66.64;102732.44;5064717;28;20033;-80
2023/03/28 04:50:57;;;;;;;0.20;0.20;;;;;;;3.08;66.69;102731.56;5073888;28;20388;-79
2023/03/28 04:53:23;;;;;;;0.15;0.15;;;;;;;3.08;66.96;102734.16;5076725;28;20032;-80
2023/03/28 04:55:50;;;;;;;0.20;0.20;;;;;;;3.07;67.31;102730.63;5061586;28;20429;-80
2023/03/28 04:58:17;;;;;;;0.10;0.10;;;;;;;3.09;67.39;102730.72;5067674;28;20036;-80
2023/03/28 05:00:44;;;;;;;0.10;0.10;;;;;;;3.07;67.59;102732.38;5064298;28;20144;-79
2023/03/28 05:03:17;;;;;;;0.17;0.17;;;;;;;3.10;67.27;102722.00;5073875;28;20029;-80
2023/03/28 05:05:44;;;;;;;0.20;0.20;;;;;;;3.10;67.83;102726.38;5084751;28;20042;-81
2023/03/28 05:08:11;;;;;;;0.10;0.10;;;;;;;3.10;67.79;102729.00;5076201;28;20016;-80
2023/03/28 05:10:38;;;;;;;0.17;0.17;;;;;;;3.09;67.50;102733.34;5070653;28;20055;-81
2023/03/28 05:13:05;;;;;;;0.10;0.10;;;;;;;3.09;67.29;102730.72;5078026;28;20107;-81
2023/03/28 05:15:31;;;;;;;0.15;0.15;;;;;;;3.07;67.26;102724.53;5069646;28;20036;-81
2023/03/28 05:17:58;;;;;;;0.10;0.10;;;;;;;3.07;67.36;102729.75;5070091;28;20047;-82
2023/03/28 05:20:25;;;;;;;0.13;0.13;;;;;;;3.06;67.98;102727.97;5067638;28;20032;-80
2023/03/28 05:22:52;;;;;;;0.10;0.10;;;;;;;3.08;67.57;102726.31;5071714;28;20060;-79
2023/03/28 05:25:18;;;;;;;0.30;0.30;;;;;;;3.08;67.75;102724.56;5060823;28;20078;-80
2023/03/28 05:27:45;;;;;;;0.20;0.20;;;;;;;3.07;68.37;102728.03;5066582;28;20485;-80
2023/03/28 05:30:12;;;;;;;0.10;0.10;;;;;;;3.10;68.29;102732.50;5075245;28;20037;-80
2023/03/28 05:32:38;;;;;;;0.20;0.20;;;;;;;3.13;68.49;102740.50;5073170;28;20029;-80
2023/03/28 05:35:07;;;;;;;0.10;0.10;;;;;;;3.16;68.46;102740.59;5064430;28;20079;-79
2023/03/28 05:37:35;;;;;;;0.20;0.20;;;;;;;3.19;68.37;102745.97;5068031;28;20039;-80
2023/03/28 05:40:05;;;;;;;0.10;0.10;;;;;;;3.20;68.56;102742.53;5067058;28;20040;-79
2023/03/28 05:42:32;;;;;;;0.10;0.10;;;;;;;3.26;68.68;102749.75;5077205;28;20032;-80
2023/03/28 05:44:58;;;;;;;0.20;0.20;;;;;;;3.29;68.52;102751.59;5069838;28;20024;-80
2023/03/28 05:47:24;;;;;;;0.20;0.20;;;;;;;3.33;68.50;102748.28;5072773;28;20048;-78
2023/03/28 05:49:50;;;;;;;0.15;0.15;;;;;;;3.37;68.43;102745.81;5074673;28;20547;-79
2023/03/28 05:52:17;;;;;;;0.10;0.10;;;;;;;3.40;68.86;102743.34;5070616;28;20517;-78
2023/03/28 05:54:43;;;;;;;0.20;0.20;;;;;;;3.48;68.99;102743.66;5068948;28;20036;-77
2023/03/28 05:57:09;;;;;;;0.20;0.20;;;;;;;3.52;69.08;102745.53;5068303;28;20036;-79
2023/03/28 05:59:39;;;;;;;0.10;0.10;;;;;;;3.58;69.10;102750.16;5067697;28;20032;-78
2023/03/28 06:02:09;;;;;;;0.20;0.20;;;;;;;3.63;68.78;102745.97;5069712;28;20465;-80
2023/03/28 06:04:36;;;;;;;0.10;0.10;;;;;;;3.70;68.64;102744.47;5078360;28;20024;-79
2023/03/28 06:07:02;;;;;;;0.10;0.10;;;;;;;3.75;68.45;102742.03;5052881;28;20036;-79
2023/03/28 06:09:30;;;;;;;0.10;0.10;;;;;;;3.78;68.58;102743.06;5062458;28;20032;-79
2023/03/28 06:11:57;;;;;;;0.20;0.20;;;;;;;3.80;68.66;102746.66;5064643;28;20394;-79
2023/03/28 06:14:23;;;;;;;0.10;0.10;;;;;;;3.83;68.75;102741.50;5071648;28;20498;-79
2023/03/28 06:16:49;;;;;;;0.20;0.20;;;;;;;3.89;67.82;102751.34;5068391;28;20096;-79
2023/03/28 06:19:15;;;;;;;0.10;0.10;;;;;;;3.90;68.58;102750.53;5061297;28;20037;-79
2023/03/28 06:21:41;;;;;;;0.10;0.10;;;;;;;3.95;67.94;102745.44;5062171;28;20067;-79
2023/03/28 06:24:09;;;;;;;0.10;0.10;;;;;;;3.96;68.47;102737.66;5065594;28;20035;-79
2023/03/28 06:26:35;;;;;;;0.10;0.10;;;;;;;4.01;67.92;102746.56;5077671;28;20020;-79
2023/03/28 06:29:02;;;;;;;0.10;0.10;;;;;;;4.04;68.25;102740.56;5084070;28;20039;-79
2023/03/28 06:31:28;;;;;;;0.15;0.15;;;;;;;4.08;67.86;102745.06;5083250;28;20035;-79
2023/03/28 06:33:54;;;;;;;0.10;0.10;;;;;;;4.10;68.22;102743.41;5076593;28;20024;-79
2023/03/28 06:36:20;;;;;;;0.10;0.10;;;;;;;4.14;68.20;102750.53;5080040;28;20026;-81
2023/03/28 06:38:48;;;;;;;0.10;0.10;;;;;;;4.18;68.28;102747.19;5074877;28;20029;-79
2023/03/28 06:41:15;;;;;;;0.20;0.20;;;;;;;4.23;67.81;102749.09;5064482;28;20437;-80
2023/03/28 06:43:41;;;;;;;0.10;0.10;;;;;;;4.24;68.20;102748.25;5060075;28;20040;-79
2023/03/28 06:46:08;;;;;;;0.10;0.10;;;;;;;4.31;68.03;102742.38;5063400;28;20024;-79
2023/03/28 06:48:36;;;;;;;0.10;0.10;;;;;;;4.35;67.60;102741.69;5056442;28;20060;-79
2023/03/28 06:51:03;;;;;;;0.10;0.10;;;;;;;4.41;67.57;102744.53;5061210;28;20084;-79
2023/03/28 06:53:29;;;;;;;1.30;1.20;;;;;;;4.48;67.47;102746.50;5057035;28;20502;-79
2023/03/28 06:55:56;;;;;;;0.10;0.10;;;;;;;4.58;67.55;102760.00;5061696;28;20033;-79
2023/03/28 06:58:22;;;;;;;0.10;0.10;;;;;;;4.65;67.55;102752.38;5056805;28;20437;-79
2023/03/28 07:00:51;;;;;;;0.30;0.30;;;;;;;4.74;67.29;102751.81;5055206;28;20383;-80
2023/03/28 07:03:18;;;;;;;0.10;0.10;;;;;;;4.79;67.06;102765.09;5082135;28;20046;-79
2023/03/28 07:05:44;;;;;;;0.75;0.57;;;;;;;4.88;67.06;102751.41;5069254;28;20246;-80
2023/03/28 07:08:12;;;;;;;0.85;0.85;;;;;;;4.93;66.95;102755.06;5070462;28;20039;-79
2023/03/28 07:10:41;;;;;;;0.17;0.17;;;;;;;4.98;66.78;102753.50;5055340;28;20405;-80
2023/03/28 07:13:08;;;;;;;0.22;0.22;;;;;;;5.04;66.63;102745.81;5066272;28;20485;-79
2023/03/28 07:15:34;;;;;;;0.10;0.10;;;;;;;5.10;66.65;102753.91;5062079;28;20028;-79
2023/03/28 07:18:00;;;;;;;0.43;0.43;;;;;;;5.18;66.37;102755.06;5066449;28;20040;-82
2023/03/28 07:20:27;;;;;;;0.10;0.10;;;;;;;5.27;66.53;102756.19;5068940;28;20038;-79
2023/03/28 07:22:53;;;;;;;0.10;0.10;;;;;;;5.32;66.34;102751.97;5061749;28;20033;-78
2023/03/28 07:25:19;;;;;;;0.20;0.20;;;;;;;5.40;66.29;102739.09;5062435;28;20053;-79
2023/03/28 07:27:45;;;;;;;0.10;0.10;;;;;;;5.48;66.03;102743.75;5072255;28;20037;-79
2023/03/28 07:30:12;;;;;;;0.10;0.10;;;;;;;5.58;66.06;102744.03;5058747;28;20058;-79
2023/03/28 07:32:38;;;;;;;1.65;1.55;;;;;;;5.66;66.06;102747.81;5061617;28;20025;-78
2023/03/28 07:35:07;;;;;;;0.10;0.10;;;;;;;5.78;66.29;102739.38;5063668;28;20083;-78
2023/03/28 07:37:33;;;;;;;0.10;0.10;;;;;;;5.86;66.21;102739.59;5086815;28;20534;-79
2023/03/28 07:39:59;;;;;;;0.20;0.20;;;;;;;5.96;66.11;102744.31;5082095;28;20086;-78
2023/03/28 07:42:26;;;;;;;0.10;0.10;;;;;;;6.08;65.79;102751.69;5081557;28;20032;-79
2023/03/28 07:44:52;;;;;;;0.10;0.10;;;;;;;6.21;65.70;102755.59;5074434;28;20029;-79
2023/03/28 07:47:19;;;;;;;0.10;0.10;;;;;;;6.34;65.45;102747.19;5076797;28;20548;-78
2023/03/28 07:49:46;;;;;;;0.30;0.30;;;;;;;6.51;65.55;102746.78;5072949;28;20039;-80
2023/03/28 07:52:12;;;;;;;0.20;0.20;;;;;;;6.64;65.14;102744.53;5075337;28;20024;-81
2023/03/28 07:54:39;;;;;;;0.98;0.95;;;;;;;6.76;64.79;102743.94;5079756;28;20401;-78
2023/03/28 07:57:05;;;;;;;1.50;1.40;;;;;;;6.89;64.52;102742.53;5066776;28;20028;-80
2023/03/28 07:59:32;;;;;;;0.20;0.20;;;;;;;7.00;64.39;102732.25;5074489;28;20086;-79
2023/03/28 08:01:58;;;;;;;0.40;0.40;;;;;;;7.11;63.19;102730.78;5079593;28;20078;-80
2023/03/28 08:04:24;;;;;;;0.20;0.20;;;;;;;7.24;63.11;102720.53;5079070;28;20123;-80
2023/03/28 08:06:51;;;;;;;0.20;0.20;;;;;;;7.35;63.40;102723.44;5072364;28;20100;-79
2023/03/28 08:09:18;;;;;;;0.10;0.10;;;;;;;7.40;61.21;102721.78;5069878;28;20074;-79
2023/03/28 08:11:45;;;;;;;0.57;0.57;;;;;;;7.54;61.30;102722.09;5072721;28;20028;-79
2023/03/28 08:14:14;;;;;;;0.17;0.17;;;;;;;7.70;62.01;102724.25;5076582;28;20032;-80
2023/03/28 08:16:41;;;;;;;0.30;0.30;;;;;;;7.78;60.03;102724.41;5073374;28;20040;-81
2023/03/28 08:19:08;;;;;;;0.10;0.10;;;;;;;7.85;59.82;102730.69;5077555;28;20044;-79
2023/03/28 08:21:34;;;;;;;0.30;0.30;;;;;;;7.90;58.46;102723.78;5079441;28;20389;-78
2023/03/28 08:24:02;;;;;;;0.65;0.63;;;;;;;8.02;59.61;102724.03;5078937;28;20024;-78
2023/03/28 08:26:29;;;;;;;0.85;0.85;;;;;;;8.08;58.25;102729.44;5074718;28;20020;-80
2023/03/28 08:28:58;;;;;;;0.20;0.20;;;;;;;8.16;56.89;102726.97;5074787;28;20489;-80
2023/03/28 08:31:26;;;;;;;0.10;0.10;;;;;;;8.35;57.96;102722.94;5071068;28;20031;-81
2023/03/28 08:33:54;;;;;;;0.10;0.10;;;;;;;8.46;57.38;102727.53;5072947;28;20028;-80
2023/03/28 08:36:22;;;;;;;0.10;0.10;;;;;;;8.51;54.91;102718.88;5074469;28;20029;-81
2023/03/28 08:38:49;;;;;;;0.10;0.10;;;;;;;8.55;53.23;102720.72;5069671;28;20071;-78
2023/03/28 08:41:45;;;;;;;0.10;0.10;;;;;;;8.78;54.42;102716.72;5073823;28;20031;-79
2023/03/28 08:47:11;;;;;;;0.10;0.10;;;;;;;8.89;53.99;102717.78;5098433;27;20360;-80
2023/03/28 08:49:45;;;;;;;10.15;2.05;;;;;;;8.93;53.76;102724.91;5075745;28;20487;-78
2023/03/28 08:52:17;;;;;;;0.10;0.10;;;;;;;9.04;54.64;102731.25;5081072;28;20048;-78
2023/03/28 08:54:57;;;;;;;0.20;0.20;;;;;;;8.96;53.06;102727.59;5077294;28;20098;-79
2023/03/28 08:57:28;;;;;;;0.25;0.25;;;;;;;9.18;53.59;102722.66;5081324;28;20024;-79
2023/03/28 09:00:19;;;;;;;0.10;0.10;;;;;;;9.26;52.21;102721.03;5087469;28;20086;-79
2023/03/28 09:02:45;;;;;;;0.10;0.10;;;;;;;9.30;53.28;102721.97;5085225;28;20029;-79
2023/03/28 09:11:48;;;;;;;0.45;0.45;;;;;;;9.39;49.89;102715.09;5066007;28;20399;-81
2023/03/28 09:30:30;;;;;;;0.10;0.10;;;;;;;9.61;47.46;102696.84;5043910;28;20389;-79
2023/03/28 09:33:04;;;;;;;0.98;0.90;;;;;;;9.63;48.00;102689.84;5047536;28;20039;-81
2023/03/28 09:35:32;;;;;;;0.10;0.10;;;;;;;9.59;46.23;102693.28;5045423;28;20022;-80
2023/03/28 09:38:04;;;;;;;0.20;0.20;;;;;;;9.66;46.54;102692.50;5035714;28;20038;-79
2023/03/28 09:40:32;;;;;;;0.10;0.10;;;;;;;9.76;47.79;102685.59;5024565;28;20025;-79
2023/03/28 09:43:10;;;;;;;0.10;0.10;;;;;;;9.76;45.19;102679.38;5026352;28;20544;-78
2023/03/28 09:45:59;;;;;;;0.20;0.20;;;;;;;9.78;45.40;102672.34;5033977;28;20037;-78
2023/03/28 09:48:32;;;;;;;0.10;0.10;;;;;;;9.70;45.65;102667.84;5020672;28;20022;-79
2023/03/28 09:51:00;;;;;;;0.20;0.20;;;;;;;9.75;44.49;102667.91;5028385;28;20040;-79
2023/03/28 09:53:29;;;;;;;1.55;1.00;;;;;;;9.77;42.46;102663.53;5027125;28;20034;-81
2023/03/28 09:56:02;;;;;;;0.20;0.20;;;;;;;9.78;41.91;102654.75;5028498;28;20025;-80
2023/03/28 09:58:28;;;;;;;0.10;0.10;;;;;;;9.81;41.02;102649.47;5028283;28;20449;-82
2023/03/28 10:00:54;;;;;;;0.20;0.20;;;;;;;9.82;40.34;102650.34;5034704;28;20084;-81
2023/03/28 10:03:31;;;;;;;0.10;0.10;;;;;;;9.90;41.68;102653.97;5033324;28;20026;-83
2023/03/28 10:05:59;;;;;;;2.45;2.30;;;;;;;9.93;42.83;102651.38;5028948;28;20036;-80
2023/03/28 10:08:33;;;;;;;0.10;0.10;;;;;;;9.99;42.62;102647.91;5029282;28;20046;-82
2023/03/28 10:11:08;;;;;;;0.10;0.10;;;;;;;10.04;41.15;102644.44;5029921;28;20068;-80
2023/03/28 10:13:41;;;;;;;0.10;0.10;;;;;;;10.10;41.90;102637.44;5037410;28;20056;-80
2023/03/28 10:16:13;;;;;;;0.10;0.10;;;;;;;10.08;41.32;102633.88;5034575;28;20399;-81
2023/03/28 10:18:41;;;;;;;0.20;0.20;;;;;;;10.22;41.34;102639.31;5034635;28;20026;-81
2023/03/28 10:21:15;;;;;;;0.10;0.10;;;;;;;10.21;40.13;102630.50;5033746;28;20191;-81
2023/03/28 10:23:47;;;;;;;0.10;0.10;;;;;;;10.24;39.80;102622.56;5033059;28;20034;-81
2023/03/28 10:26:22;;;;;;;0.15;0.15;;;;;;;10.26;41.06;102620.81;5032063;28;20049;-80
2023/03/28 10:28:53;;;;;;;0.10;0.10;;;;;;;10.42;41.25;102607.75;5032504;28;20457;-81
2023/03/28 10:31:28;;;;;;;0.10;0.10;;;;;;;10.47;41.27;102601.63;5032549;28;20065;-81
2023/03/28 10:33:58;;;;;;;0.10;0.10;;;;;;;10.60;40.81;102607.91;5024527;28;20026;-80
2023/03/28 10:36:31;;;;;;;0.10;0.10;;;;;;;10.71;40.57;102600.03;5029739;28;20149;-81
2023/03/28 10:39:23;;;;;;;0.22;0.22;;;;;;;10.90;41.27;102595.75;5032450;28;20045;-80
2023/03/28 10:41:56;;;;;;;0.10;0.10;;;;;;;10.91;41.33;102597.53;5022432;28;20029;-81
2023/03/28 10:44:28;;;;;;;0.10;0.10;;;;;;;11.10;39.33;102595.00;5013963;28;20105;-82
2023/03/28 10:46:58;;;;;;;0.45;0.45;;;;;;;11.21;41.96;102585.34;5012982;28;20037;-79
2023/03/28 10:49:28;;;;;;;0.10;0.10;;;;;;;11.25;37.81;102580.94;5016697;28;20075;-80
2023/03/28 10:51:55;;;;;;;0.10;0.10;;;;;;;11.32;39.65;102573.00;5012023;28;20038;-79
2023/03/28 11:00:02;;;;;;;0.73;0.73;;;;;;;11.20;39.88;102570.28;5064676;28;20393;-80
2023/03/28 11:05:30;;;;;;;0.10;0.10;;;;;;;11.34;40.03;102565.06;5108986;27;20747;-80
2023/03/28 11:10:45;;;;;;;0.10;0.10;;;;;;;11.21;37.58;102558.78;5093429;27;20636;-80
2023/03/28 11:13:41;;;;;;;0.30;0.30;;;;;;;11.19;36.68;102554.38;5092976;28;20059;-80
2023/03/28 11:21:35;;;;;;;0.10;0.10;;;;;;;10.94;38.14;102547.19;5113455;27;20327;-80
2023/03/28 11:24:12;;;;;;;0.20;0.20;;;;;;;10.97;38.20;102547.19;5101409;28;20032;-81
2023/03/28 11:27:06;;;;;;;0.10;0.10;;;;;;;11.00;38.60;102543.66;5100672;28;20020;-81
2023/03/28 11:29:42;;;;;;;0.10;0.10;;;;;;;11.02;38.40;102546.34;5072869;28;20043;-81
2023/03/28 11:32:32;;;;;;;0.10;0.10;;;;;;;11.01;38.99;102540.13;5079835;28;20036;-81
2023/03/28 11:37:46;;;;;;;0.10;0.10;;;;;;;10.90;39.17;102526.78;5096142;27;20187;-80
2023/03/28 11:40:36;;;;;;;0.63;0.63;;;;;;;10.93;39.16;102518.88;5084961;28;20101;-80
2023/03/28 11:43:05;;;;;;;0.20;0.20;;;;;;;10.88;40.62;102504.72;5086803;28;20036;-80
2023/03/28 11:48:18;;;;;;;0.10;0.10;;;;;;;11.03;37.39;102495.94;5085452;27;20938;-81
2023/03/28 11:51:09;;;;;;;0.10;0.10;;;;;;;11.33;39.05;102487.22;5073655;28;20033;-80
2023/03/28 11:53:46;;;;;;;0.10;0.10;;;;;;;11.38;38.53;102481.94;5075065;28;20017;-80
2023/03/28 11:59:01;;;;;;;0.10;0.10;;;;;;;11.58;37.59;102479.31;5096607;27;20171;-81
2023/03/28 12:01:32;;;;;;;0.17;0.17;;;;;;;11.43;37.16;102473.97;5091544;28;20032;-82
2023/03/28 12:04:27;;;;;;;0.10;0.10;;;;;;;11.55;37.88;102475.75;5086354;28;20543;-81
2023/03/28 12:07:17;;;;;;;0.10;0.10;;;;;;;11.65;38.63;102465.16;5094665;28;20028;-81
2023/03/28 12:12:33;;;;;;;0.10;0.10;;;;;;;11.74;38.32;102443.06;5133272;27;20402;-82
2023/03/28 12:15:16;;;;;;;0.20;0.20;;;;;;;11.94;39.67;102440.41;5127792;27;20691;-80
2023/03/28 12:17:51;;;;;;;0.13;0.13;;;;;;;12.02;37.69;102442.22;5125767;28;20083;-80
2023/03/28 12:20:42;;;;;;;1.00;1.00;;;;;;;12.18;37.96;102443.97;5113016;28;20032;-81
2023/03/28 12:23:33;;;;;;;0.10;0.10;;;;;;;12.10;38.42;102435.09;5112477;28;20028;-81
2023/03/28 12:26:30;;;;;;;0.10;0.10;;;;;;;12.10;37.53;102419.16;5112852;28;20027;-81
2023/03/28 12:29:04;;;;;;;0.10;0.10;;;;;;;12.06;38.54;102414.75;5111759;28;20019;-81
2023/03/28 12:31:46;;;;;;;0.15;0.15;;;;;;;12.11;38.04;102420.94;5112505;28;20035;-82
2023/03/28 12:36:54;;;;;;;0.10;0.10;;;;;;;11.99;37.74;102427.16;5088643;27;20377;-80
2023/03/28 12:39:33;;;;;;;;;;;;;;;12.18;36.47;102424.50;5075965;28;20039;-80
2023/03/28 12:42:02;;;;;;;0.10;0.10;;;;;;;12.07;36.49;102427.16;5078361;28;19915;-80
2023/03/28 12:44:38;;;;;;;0.63;0.63;;;;;;;12.12;36.71;102420.06;5089550;28;20024;-81
2023/03/28 12:47:13;;;;;;;0.30;0.30;;;;;;;12.19;36.63;102416.50;5076388;28;20073;-81
2023/03/28 12:49:47;;;;;;;0.10;0.10;;;;;;;12.22;36.61;102408.50;5059595;28;20094;-81
2023/03/28 12:52:33;;;;;;;0.10;0.10;;;;;;;12.27;35.59;102404.09;5070580;28;20056;-81
2023/03/28 12:55:06;;;;;;;0.10;0.10;;;;;;;12.18;36.10;102396.13;5070642;28;20119;-81
2023/03/28 13:00:28;;;;;;;0.32;0.32;;;;;;;12.45;35.81;102391.66;5074193;27;20616;-81
2023/03/28 13:03:34;;;;;;;0.10;0.10;;;;;;;12.61;37.06;102372.09;5071137;28;20029;-81
2023/03/28 13:06:41;;;;;;;0.10;0.10;;;;;;;12.78;36.06;102376.44;5064340;28;20044;-83
2023/03/28 13:09:28;;;;;;;0.30;0.30;;;;;;;12.87;37.06;102365.78;5051274;28;20490;-80
2023/03/28 13:12:05;;;;;;;0.80;0.73;;;;;;;13.07;36.73;102362.09;5056810;28;20053;-81
2023/03/28 13:14:36;;;;;;;0.10;0.10;;;;;;;13.19;36.47;102356.69;5051688;28;20025;-80
2023/03/28 13:17:20;;;;;;;0.17;0.17;;;;;;;13.24;36.25;102352.22;5050422;28;20500;-81
2023/03/28 13:20:06;;;;;;;0.15;0.15;;;;;;;13.49;36.81;102349.41;5050417;28;20371;-81
2023/03/28 13:28:21;;;;;;;1.00;1.00;;;;;;;13.37;34.93;102336.16;5107015;27;1193109;-80
2023/03/28 13:33:47;;;;;;;0.20;0.20;;;;;;;13.16;36.70;102340.78;5102784;27;1180092;-80
2023/03/28 13:36:20;;;;;;;0.10;0.10;;;;;;;13.13;36.90;102340.78;5123419;27;20441;-81